createdAt,value
2022-07-26T00:04:48.041Z,13.60
2022-07-26T00:53:31.877Z,15.77
2022-07-26T00:59:53.209Z,8.77
2022-07-26T01:07:43.260Z,16.25
2022-07-26T01:11:14.793Z,10.23
2022-07-26T01:14:28.643Z,11.07
2022-07-26T01:17:10.281Z,12.63
2022-07-26T01:19:44.243Z,9.20
2022-07-26T01:22:24.063Z,12.77
2022-07-26T01:24:54.346Z,17.55
2022-07-26T01:28:26.593Z,10.35
2022-07-26T01:31:31.985Z,11.13
2022-07-26T01:34:06.471Z,8.68
2022-07-26T01:37:20.511Z,9.15
2022-07-26T01:40:11.812Z,11.25
2022-07-26T01:42:51.320Z,8.88
2022-07-26T01:45:55.123Z,14.60
2022-07-26T01:49:28.687Z,9.73
2022-07-26T01:52:15.634Z,11.05
2022-07-26T01:54:42.937Z,10.48
2022-07-26T01:58:06.697Z,13.88
2022-07-26T02:04:30.946Z,8.40
2022-07-26T02:07:30.080Z,8.88
2022-07-26T02:10:00.978Z,12.40
2022-07-26T02:12:42.600Z,11.50
2022-07-26T02:15:48.807Z,11.43
2022-07-26T02:19:05.206Z,11.90
2022-07-26T02:21:35.933Z,18.10
2022-07-26T02:24:10.824Z,15.27
2022-07-26T02:26:41.679Z,14.90
2022-07-26T02:29:33.455Z,13.77
2022-07-26T02:32:55.042Z,9.63
2022-07-26T02:38:41.136Z,10.60
2022-07-26T02:41:22.846Z,14.38
2022-07-26T02:45:20.198Z,14.25
2022-07-26T02:47:56.090Z,20.02
2022-07-26T02:53:42.210Z,14.38
2022-07-26T02:56:22.584Z,16.17
2022-07-26T02:58:52.600Z,14.75
2022-07-26T03:03:06.541Z,21.52
2022-07-26T03:04:19.432Z,17.77
2022-07-26T03:10:06.786Z,22.67
2022-07-26T03:16:58.646Z,27.25
2022-07-26T03:19:25.859Z,23.02
2022-07-26T03:21:55.301Z,31.38
2022-07-26T03:24:59.429Z,25.92
2022-07-26T03:27:28.922Z,20.00
2022-07-26T03:29:59.255Z,22.00
2022-07-26T03:32:26.999Z,30.70
2022-07-26T03:34:54.609Z,22.05
2022-07-26T03:37:45.474Z,17.58
2022-07-26T03:40:41.406Z,17.10
2022-07-26T03:43:12.889Z,25.90
2022-07-26T03:45:49.082Z,19.58
2022-07-26T03:48:19.439Z,22.67
2022-07-26T03:50:55.858Z,19.58
2022-07-26T03:53:23.297Z,23.55
2022-07-26T03:56:09.462Z,26.25
2022-07-26T03:58:37.349Z,23.02
2022-07-26T04:01:04.540Z,17.58
2022-07-26T04:03:31.655Z,18.00
2022-07-26T04:05:58.855Z,14.45
2022-07-26T04:08:54.081Z,14.43
2022-07-26T04:11:32.292Z,25.25
2022-07-26T04:14:00.538Z,15.98
2022-07-26T04:16:27.684Z,11.63
2022-07-26T04:18:54.852Z,9.07
2022-07-26T04:21:27.376Z,11.88
2022-07-26T04:23:54.419Z,15.00
2022-07-26T04:26:25.808Z,19.45
2022-07-26T04:28:52.879Z,11.60
2022-07-26T04:31:20.329Z,9.40
2022-07-26T04:33:47.577Z,11.60
2022-07-26T04:36:14.995Z,14.27
2022-07-26T04:38:42.148Z,11.27
2022-07-26T04:41:12.167Z,15.52
2022-07-26T04:43:39.204Z,12.07
2022-07-26T04:46:06.789Z,14.02
2022-07-26T04:48:33.978Z,11.13
2022-07-26T04:51:04.076Z,13.70
2022-07-26T04:53:31.325Z,13.88
2022-07-26T04:55:58.611Z,15.25
2022-07-26T04:58:28.084Z,8.07
2022-07-26T05:01:11.631Z,15.48
2022-07-26T05:03:42.355Z,14.02
2022-07-26T05:06:09.450Z,11.30
2022-07-26T05:08:39.734Z,13.98
2022-07-26T05:11:06.863Z,12.32
2022-07-26T05:13:34.103Z,9.93
2022-07-26T05:16:01.831Z,9.40
2022-07-26T05:18:31.902Z,13.70
2022-07-26T05:21:12.725Z,6.53
2022-07-26T05:23:39.730Z,10.70
2022-07-26T05:26:25.908Z,10.88
2022-07-26T05:28:54.248Z,19.20
2022-07-26T05:31:21.345Z,9.55
2022-07-26T05:33:48.611Z,14.32
2022-07-26T05:36:15.817Z,12.77
2022-07-26T05:38:42.936Z,13.52
2022-07-26T05:41:10.055Z,15.90
2022-07-26T05:43:41.511Z,11.32
2022-07-26T05:46:11.026Z,8.50
2022-07-26T05:48:39.998Z,7.90
2022-07-26T05:51:11.238Z,6.38
2022-07-26T05:53:38.877Z,6.75
2022-07-26T05:56:07.964Z,8.70
2022-07-26T05:58:35.143Z,8.57
2022-07-26T06:01:02.231Z,5.82
2022-07-26T06:03:30.163Z,7.65
2022-07-26T06:05:59.223Z,9.02
2022-07-26T06:08:27.234Z,11.27
2022-07-26T06:10:55.151Z,7.07
2022-07-26T06:13:22.680Z,8.38
2022-07-26T06:15:50.251Z,9.30
2022-07-26T06:18:17.626Z,9.82
2022-07-26T06:20:47.600Z,8.38
2022-07-26T06:23:36.667Z,8.40
2022-07-26T06:26:09.845Z,16.75
2022-07-26T06:28:38.479Z,7.65
2022-07-26T06:31:06.128Z,10.13
2022-07-26T06:33:37.040Z,11.68
2022-07-26T06:36:04.675Z,24.38
2022-07-26T06:38:32.555Z,6.93
2022-07-26T06:41:01.055Z,11.07
2022-07-26T06:43:45.989Z,9.43
2022-07-26T06:46:13.206Z,12.40
2022-07-26T06:48:40.245Z,11.23
2022-07-26T06:52:02.647Z,11.57
2022-07-26T06:54:35.466Z,9.75
2022-07-26T06:57:02.510Z,7.95
2022-07-26T06:59:29.530Z,10.85
2022-07-26T07:03:11.620Z,7.45
2022-07-26T07:05:49.992Z,8.75
2022-07-26T07:08:18.377Z,10.52
2022-07-26T07:10:45.678Z,9.40
2022-07-26T07:13:12.972Z,12.80
2022-07-26T07:15:43.215Z,9.48
2022-07-26T07:21:13.308Z,10.00
2022-07-26T07:23:52.472Z,7.65
2022-07-26T07:26:20.180Z,8.43
2022-07-26T07:28:48.512Z,7.35
2022-07-26T07:31:16.386Z,5.07
2022-07-26T07:34:41.951Z,8.85
2022-07-26T07:37:14.145Z,8.80
2022-07-26T07:39:41.546Z,7.88
2022-07-26T07:42:20.489Z,9.23
2022-07-26T07:44:47.982Z,7.45
2022-07-26T07:47:15.275Z,13.40
2022-07-26T07:49:46.121Z,7.78
2022-07-26T07:52:13.323Z,7.18
2022-07-26T07:54:42.306Z,5.95
2022-07-26T07:57:09.764Z,4.78
2022-07-26T08:02:24.173Z,7.38
2022-07-26T08:04:51.688Z,11.10
2022-07-26T08:08:35.413Z,8.70
2022-07-26T08:10:56.119Z,5.22
2022-07-26T08:13:24.455Z,5.38
2022-07-26T08:15:56.100Z,3.58
2022-07-26T08:19:03.728Z,11.15
2022-07-26T08:21:31.299Z,6.68
2022-07-26T08:23:58.508Z,3.53
2022-07-26T08:26:25.906Z,9.52
2022-07-26T08:29:00.091Z,5.57
2022-07-26T08:31:29.254Z,6.65
2022-07-26T08:34:00.829Z,7.00
2022-07-26T08:36:32.203Z,9.73
2022-07-26T08:39:01.895Z,6.85
2022-07-26T08:41:55.373Z,5.53
2022-07-26T08:44:45.947Z,4.18
2022-07-26T08:47:55.225Z,2.72
2022-07-26T08:51:00.336Z,5.47
2022-07-26T08:53:39.498Z,3.83
2022-07-26T08:56:07.795Z,3.72
2022-07-26T08:58:46.567Z,4.70
2022-07-26T09:01:17.715Z,4.45
2022-07-26T09:03:46.099Z,3.33
2022-07-26T09:06:22.307Z,1.88
2022-07-26T09:08:52.746Z,6.00
2022-07-26T09:11:32.376Z,3.53
2022-07-26T09:14:07.930Z,4.30
2022-07-26T09:16:39.354Z,3.30
2022-07-26T09:19:24.610Z,3.63
2022-07-26T09:21:52.246Z,3.60
2022-07-26T09:24:42.230Z,4.28
2022-07-26T09:27:15.538Z,2.90
2022-07-26T09:31:27.059Z,3.00
2022-07-26T09:33:56.758Z,4.00
2022-07-26T09:36:59.264Z,5.20
2022-07-26T09:39:34.014Z,2.03
2022-07-26T09:45:02.044Z,5.05
2022-07-26T09:47:40.409Z,3.55
2022-07-26T09:50:25.334Z,2.35
2022-07-26T09:53:13.077Z,3.42
2022-07-26T09:55:46.514Z,5.10
2022-07-26T10:01:13.741Z,4.07
2022-07-26T10:03:40.807Z,2.83
2022-07-26T10:07:10.663Z,2.30
2022-07-26T10:10:14.169Z,5.13
2022-07-26T10:13:25.424Z,4.15
2022-07-26T10:15:53.310Z,2.45
2022-07-26T10:18:50.501Z,2.85
2022-07-26T10:21:30.465Z,3.45
2022-07-26T10:24:04.400Z,4.43
2022-07-26T10:26:37.016Z,3.55
2022-07-26T10:29:38.433Z,5.80
2022-07-26T10:32:17.067Z,4.82
2022-07-26T10:34:49.390Z,5.15
2022-07-26T10:37:27.910Z,4.15
2022-07-26T10:41:30.979Z,3.83
2022-07-26T10:50:36.973Z,5.53
2022-07-26T10:53:11.430Z,4.20
2022-07-26T10:57:23.928Z,3.28
2022-07-26T11:00:24.632Z,4.15
2022-07-26T11:02:59.495Z,1.88
2022-07-26T11:05:36.532Z,4.45
2022-07-26T11:08:11.712Z,3.90
2022-07-26T11:10:49.746Z,3.45
2022-07-26T11:14:48.170Z,4.90
2022-07-26T11:17:35.341Z,3.03
2022-07-26T11:20:09.881Z,3.28
2022-07-26T11:22:42.699Z,3.25
2022-07-26T11:25:13.210Z,6.30
2022-07-26T11:28:07.143Z,6.63
2022-07-26T11:30:54.643Z,6.35
2022-07-26T11:33:34.544Z,4.32
2022-07-26T11:36:01.674Z,3.72
2022-07-26T11:38:55.561Z,2.85
2022-07-26T11:41:34.626Z,3.38
2022-07-26T11:44:04.848Z,4.80
2022-07-26T11:46:41.063Z,2.25
2022-07-26T11:49:20.560Z,5.55
2022-07-26T11:52:05.968Z,3.78
2022-07-26T11:54:54.402Z,3.50
2022-07-26T11:57:33.177Z,2.78
2022-07-26T12:00:01.429Z,5.10
2022-07-26T12:03:01.974Z,6.55
2022-07-26T12:05:30.953Z,9.18
2022-07-26T12:08:04.766Z,5.80
2022-07-26T12:10:32.063Z,2.30
2022-07-26T12:13:16.062Z,4.88
2022-07-26T12:15:50.802Z,4.70
2022-07-26T12:18:32.710Z,5.85
2022-07-26T12:21:19.911Z,4.65
2022-07-26T12:23:49.932Z,6.72
2022-07-26T12:26:40.431Z,5.35
2022-07-26T12:29:27.450Z,4.97
2022-07-26T12:32:43.883Z,3.10
2022-07-26T12:35:28.071Z,4.43
2022-07-26T12:37:55.757Z,3.03
2022-07-26T12:40:40.178Z,4.45
2022-07-26T12:43:07.490Z,4.10
2022-07-26T12:45:36.186Z,3.63
2022-07-26T12:48:11.863Z,4.93
2022-07-26T12:50:39.513Z,1.20
2022-07-26T12:53:08.942Z,13.45
2022-07-26T12:56:00.821Z,5.50
2022-07-26T12:58:36.384Z,6.13
2022-07-26T13:01:07.095Z,1.67
2022-07-26T13:03:34.362Z,5.40
2022-07-26T13:06:03.313Z,3.58
2022-07-26T13:08:30.541Z,10.80
2022-07-26T13:11:36.846Z,2.83
2022-07-26T13:14:03.843Z,4.85
2022-07-26T13:16:44.417Z,3.67
2022-07-26T13:19:11.583Z,4.75
2022-07-26T13:21:38.681Z,3.88
2022-07-26T13:24:07.447Z,3.45
2022-07-26T13:26:36.863Z,3.15
2022-07-26T13:29:04.462Z,2.38
2022-07-26T13:31:33.440Z,3.50
2022-07-26T13:34:00.901Z,3.00
2022-07-26T13:36:27.932Z,7.50
2022-07-26T13:38:58.252Z,1.73
2022-07-26T13:41:25.276Z,4.05
2022-07-26T13:43:54.182Z,2.53
2022-07-26T13:46:22.279Z,5.00
2022-07-26T13:49:00.568Z,2.80
2022-07-26T13:51:54.732Z,4.53
2022-07-26T13:54:33.785Z,1.65
2022-07-26T13:57:09.722Z,3.42
2022-07-26T13:59:41.950Z,3.80
2022-07-26T14:02:09.437Z,2.88
2022-07-26T14:04:36.580Z,3.10
2022-07-26T14:07:03.580Z,2.35
2022-07-26T14:09:30.565Z,2.03
2022-07-26T14:11:57.782Z,3.85
2022-07-26T14:14:24.787Z,5.68
2022-07-26T14:16:52.116Z,2.53
2022-07-26T14:19:19.497Z,4.97
2022-07-26T14:22:14.165Z,4.93
2022-07-26T14:24:41.187Z,3.00
2022-07-26T14:27:08.469Z,2.05
2022-07-26T14:29:35.657Z,2.55
2022-07-26T14:32:07.773Z,2.40
2022-07-26T14:34:37.710Z,3.30
2022-07-26T14:37:08.262Z,1.80
2022-07-26T14:39:36.897Z,1.08
2022-07-26T14:43:05.052Z,4.93
2022-07-26T14:45:32.231Z,1.90
2022-07-26T14:48:02.720Z,3.55
2022-07-26T14:50:47.072Z,1.23
2022-07-26T14:53:21.189Z,3.05
2022-07-26T14:55:48.858Z,1.88
2022-07-26T14:58:15.949Z,1.13
2022-07-26T15:00:43.335Z,1.52
2022-07-26T15:03:10.737Z,4.22
2022-07-26T15:05:37.992Z,1.30
2022-07-26T15:08:08.709Z,3.72
2022-07-26T15:10:39.306Z,1.67
2022-07-26T15:13:07.491Z,2.65
2022-07-26T15:15:35.187Z,3.05
2022-07-26T15:18:02.197Z,4.65
2022-07-26T15:20:29.605Z,1.20
2022-07-26T15:22:56.661Z,1.20
2022-07-26T15:25:24.757Z,1.30
2022-07-26T15:27:53.094Z,3.05
2022-07-26T15:30:20.370Z,2.20
2022-07-26T15:32:50.908Z,4.07
2022-07-26T15:35:18.010Z,4.30
2022-07-26T15:37:45.253Z,1.45
2022-07-26T15:40:13.472Z,2.05
2022-07-26T15:42:51.903Z,2.45
2022-07-26T15:45:44.129Z,1.23
2022-07-26T15:48:17.287Z,0.77
2022-07-26T15:50:50.291Z,3.92
2022-07-26T15:53:17.884Z,2.55
2022-07-26T15:55:44.843Z,1.75
2022-07-26T15:59:18.541Z,1.40
2022-07-26T16:01:46.070Z,1.70
2022-07-26T16:04:24.158Z,2.75
2022-07-26T16:06:57.434Z,2.33
2022-07-26T16:09:28.095Z,3.88
2022-07-26T16:11:56.131Z,5.00
2022-07-26T16:14:23.191Z,2.50
2022-07-26T16:16:50.383Z,0.80
2022-07-26T16:19:39.826Z,2.13
2022-07-26T16:22:08.202Z,1.15
2022-07-26T16:24:37.407Z,1.58
2022-07-26T16:27:07.529Z,1.27
2022-07-26T16:29:34.482Z,1.00
2022-07-26T16:32:01.610Z,1.63
2022-07-26T16:34:34.674Z,3.55
2022-07-26T16:37:06.510Z,1.23
2022-07-26T16:39:33.493Z,2.20
2022-07-26T16:42:10.170Z,3.10
2022-07-26T16:44:38.377Z,2.53
2022-07-26T16:47:08.458Z,3.17
2022-07-26T16:49:41.477Z,3.20
2022-07-26T16:52:09.131Z,0.88
2022-07-26T16:54:36.249Z,0.98
2022-07-26T16:57:03.312Z,1.90
2022-07-26T16:59:39.302Z,5.57
2022-07-26T17:02:06.951Z,2.33
2022-07-26T17:04:34.157Z,3.08
2022-07-26T17:07:56.537Z,3.78
2022-07-26T17:10:25.462Z,3.50
2022-07-26T17:13:07.314Z,1.67
2022-07-26T17:15:54.639Z,1.15
2022-07-26T17:18:26.318Z,1.13
2022-07-26T17:21:36.971Z,1.58
2022-07-26T17:24:10.599Z,2.58
2022-07-26T17:26:43.880Z,1.67
2022-07-26T17:29:12.120Z,1.33
2022-07-26T17:31:51.491Z,1.90
2022-07-26T17:35:00.523Z,1.23
2022-07-26T17:37:40.135Z,2.55
2022-07-26T17:40:32.339Z,2.50
2022-07-26T17:44:38.063Z,4.13
2022-07-26T17:47:28.610Z,1.02
2022-07-26T17:50:35.396Z,1.83
2022-07-26T17:53:13.568Z,1.90
2022-07-26T17:55:50.060Z,1.95
2022-07-26T17:58:52.800Z,2.20
2022-07-26T18:01:35.384Z,2.45
2022-07-26T18:04:03.232Z,0.47
2022-07-26T18:09:52.085Z,5.57
2022-07-26T18:13:27.333Z,1.02
2022-07-26T18:15:39.023Z,1.00
2022-07-26T18:15:48.478Z,1.65
2022-07-26T18:18:32.662Z,1.88
2022-07-26T18:21:43.539Z,2.08
2022-07-26T18:28:14.811Z,2.28
2022-07-26T18:31:25.584Z,3.10
2022-07-26T18:33:04.133Z,1.75
2022-07-26T18:34:01.815Z,3.63
2022-07-26T18:36:31.386Z,2.55
2022-07-26T18:38:58.434Z,1.58
2022-07-26T18:41:25.425Z,2.22
2022-07-26T18:44:02.914Z,1.15
2022-07-26T18:46:52.417Z,3.92
2022-07-26T18:49:21.190Z,2.45
2022-07-26T18:55:00.571Z,3.83
2022-07-26T18:57:36.203Z,3.55
2022-07-26T19:00:10.405Z,2.35
2022-07-26T19:07:02.158Z,0.77
2022-07-26T19:12:20.244Z,1.17
2022-07-26T19:14:56.850Z,3.15
2022-07-26T19:17:30.147Z,2.00
2022-07-26T19:19:58.830Z,5.30
2022-07-26T19:22:37.761Z,3.13
2022-07-26T19:25:10.906Z,2.80
2022-07-26T19:27:45.329Z,0.90
2022-07-26T19:30:25.274Z,1.13
2022-07-26T19:32:53.739Z,3.53
2022-07-26T19:35:32.279Z,1.85
2022-07-26T19:38:33.185Z,1.98
2022-07-26T19:41:15.874Z,3.83
2022-07-26T19:43:49.001Z,4.25
2022-07-26T19:46:22.464Z,1.38
2022-07-26T19:48:50.271Z,3.88
2022-07-26T19:51:20.082Z,1.35
2022-07-26T19:54:17.767Z,3.25
2022-07-26T19:57:29.027Z,3.08
2022-07-26T19:59:58.885Z,3.28
2022-07-26T20:02:26.725Z,6.55
2022-07-26T20:05:04.366Z,1.92
2022-07-26T20:07:37.285Z,2.83
2022-07-26T20:10:17.703Z,2.67
2022-07-26T20:12:44.714Z,6.32
2022-07-26T20:16:05.441Z,8.17
2022-07-26T20:18:41.916Z,3.87
2022-07-26T20:21:09.398Z,4.57
2022-07-26T20:23:38.768Z,8.50
2022-07-26T20:26:17.425Z,3.28
2022-07-26T20:29:21.745Z,3.63
2022-07-26T20:31:56.650Z,5.90
2022-07-26T20:34:23.863Z,4.97
2022-07-26T20:37:23.088Z,4.30
2022-07-26T20:40:01.415Z,5.90
2022-07-26T20:42:28.599Z,7.43
2022-07-26T20:45:29.981Z,7.90
2022-07-26T20:52:09.137Z,4.13
2022-07-26T20:55:38.590Z,5.70
2022-07-26T20:58:25.863Z,5.35
2022-07-26T21:01:57.809Z,4.78
2022-07-26T21:05:32.615Z,5.83
2022-07-26T21:09:56.886Z,5.20
2022-07-26T21:32:46.541Z,7.27
2022-07-26T21:37:46.393Z,7.27
2022-07-26T21:40:38.677Z,5.93
2022-07-26T21:50:29.076Z,6.17
2022-07-26T21:53:49.383Z,5.30
2022-07-26T22:01:06.323Z,6.30
2022-07-26T22:04:18.675Z,4.77
2022-07-26T22:17:41.314Z,7.20
2022-07-26T22:23:18.590Z,4.57
2022-07-26T22:40:12.994Z,6.90
2022-07-26T22:42:40.859Z,4.50
2022-07-26T22:45:15.211Z,4.43
2022-07-26T22:47:46.902Z,6.93
2022-07-26T22:50:24.784Z,5.63
2022-07-26T22:52:52.645Z,7.00
2022-07-26T22:55:20.445Z,4.97
2022-07-26T22:57:48.482Z,6.27
2022-07-26T23:00:30.704Z,9.97
2022-07-26T23:03:00.399Z,6.17
2022-07-26T23:05:39.864Z,4.37
2022-07-26T23:08:36.754Z,8.50
2022-07-26T23:11:00.404Z,7.73
2022-07-26T23:13:30.849Z,4.17
2022-07-26T23:16:02.483Z,4.40
2022-07-26T23:18:31.417Z,7.03
2022-07-26T23:20:58.401Z,7.07
2022-07-26T23:23:29.883Z,5.37
2022-07-26T23:26:04.147Z,4.80
2022-07-26T23:28:37.508Z,3.13
2022-07-26T23:31:11.469Z,8.47
2022-07-26T23:33:50.412Z,2.37
2022-07-26T23:36:26.594Z,6.67
2022-07-26T23:45:58.696Z,6.10
